sensor_id;sensor_type;location;lat;lon;timestamp;pressure;altitude;pressure_sealevel;temperature;humidity
28267;BME280;15525;45.568;5.448;2023-04-30T00:00:03;97924.59;;;17.36;62.40
28267;BME280;15525;45.568;5.448;2023-04-30T00:02:32;97916.63;;;17.22;62.09
28267;BME280;15525;45.568;5.448;2023-04-30T00:04:58;97935.56;;;17.22;62.91
28267;BME280;15525;45.568;5.448;2023-04-30T00:07:23;97940.03;;;17.35;62.44
28267;BME280;15525;45.568;5.448;2023-04-30T00:09:48;97916.13;;;17.20;62.74
28267;BME280;15525;45.568;5.448;2023-04-30T00:12:15;97922.16;;;17.17;62.69
28267;BME280;15525;45.568;5.448;2023-04-30T00:14:40;97909.72;;;16.99;62.68
28267;BME280;15525;45.568;5.448;2023-04-30T00:17:06;97930.16;;;17.22;62.47
28267;BME280;15525;45.568;5.448;2023-04-30T00:19:31;97911.34;;;17.17;62.38
28267;BME280;15525;45.568;5.448;2023-04-30T00:21:57;97907.13;;;16.94;62.34
28267;BME280;15525;45.568;5.448;2023-04-30T00:24:22;97922.44;;;17.07;62.66
28267;BME280;15525;45.568;5.448;2023-04-30T00:26:47;97881.97;;;16.85;62.58
28267;BME280;15525;45.568;5.448;2023-04-30T00:29:13;97899.84;;;17.03;62.79
28267;BME280;15525;45.568;5.448;2023-04-30T00:31:38;97898.31;;;17.19;62.25
28267;BME280;15525;45.568;5.448;2023-04-30T00:34:04;97907.25;;;17.20;62.08
28267;BME280;15525;45.568;5.448;2023-04-30T00:36:29;97902.69;;;16.98;62.45
28267;BME280;15525;45.568;5.448;2023-04-30T00:38:56;97891.41;;;16.88;62.94
28267;BME280;15525;45.568;5.448;2023-04-30T00:41:21;97902.53;;;16.95;62.44
28267;BME280;15525;45.568;5.448;2023-04-30T00:43:47;97904.41;;;16.86;62.70
28267;BME280;15525;45.568;5.448;2023-04-30T00:46:12;97899.81;;;16.86;62.97
28267;BME280;15525;45.568;5.448;2023-04-30T00:48:38;97896.00;;;16.87;62.55
28267;BME280;15525;45.568;5.448;2023-04-30T00:51:04;97900.22;;;16.71;62.74
28267;BME280;15525;45.568;5.448;2023-04-30T00:53:30;97911.53;;;16.82;63.14
28267;BME280;15525;45.568;5.448;2023-04-30T00:55:56;97901.44;;;16.57;63.25
28267;BME280;15525;45.568;5.448;2023-04-30T00:58:22;97894.09;;;16.57;63.42
28267;BME280;15525;45.568;5.448;2023-04-30T01:00:47;97909.88;;;16.64;63.54
28267;BME280;15525;45.568;5.448;2023-04-30T01:03:14;97903.31;;;16.56;63.28
28267;BME280;15525;45.568;5.448;2023-04-30T01:05:40;97902.03;;;16.54;63.18
28267;BME280;15525;45.568;5.448;2023-04-30T01:08:06;97895.06;;;16.61;62.56
28267;BME280;15525;45.568;5.448;2023-04-30T01:10:40;97895.88;;;16.62;62.99
28267;BME280;15525;45.568;5.448;2023-04-30T01:13:19;97900.50;;;16.39;63.57
28267;BME280;15525;45.568;5.448;2023-04-30T01:15:58;97910.72;;;16.42;63.62
28267;BME280;15525;45.568;5.448;2023-04-30T01:18:30;97921.91;;;16.49;63.17
28267;BME280;15525;45.568;5.448;2023-04-30T01:21:04;97917.59;;;16.26;63.61
28267;BME280;15525;45.568;5.448;2023-04-30T01:29:13;97927.03;;;16.15;63.73
28267;BME280;15525;45.568;5.448;2023-04-30T01:31:42;97942.22;;;16.25;63.14
28267;BME280;15525;45.568;5.448;2023-04-30T01:34:09;97907.72;;;16.22;62.62
28267;BME280;15525;45.568;5.448;2023-04-30T01:42:24;97925.72;;;16.04;63.40
28267;BME280;15525;45.568;5.448;2023-04-30T01:45:37;97900.72;;;15.99;63.13
28267;BME280;15525;45.568;5.448;2023-04-30T01:48:21;97938.53;;;15.99;64.06
28267;BME280;15525;45.568;5.448;2023-04-30T01:50:59;97929.19;;;15.83;63.73
28267;BME280;15525;45.568;5.448;2023-04-30T01:53:33;97929.50;;;15.81;63.47
28267;BME280;15525;45.568;5.448;2023-04-30T01:56:04;97941.16;;;15.90;63.39
28267;BME280;15525;45.568;5.448;2023-04-30T01:58:30;97934.78;;;15.86;63.18
28267;BME280;15525;45.568;5.448;2023-04-30T02:00:56;97933.03;;;15.68;63.33
28267;BME280;15525;45.568;5.448;2023-04-30T02:03:21;97929.78;;;15.80;63.25
28267;BME280;15525;45.568;5.448;2023-04-30T02:05:47;97941.25;;;15.63;63.24
28267;BME280;15525;45.568;5.448;2023-04-30T02:08:12;97931.03;;;15.60;63.41
28267;BME280;15525;45.568;5.448;2023-04-30T02:10:38;97936.63;;;15.64;63.28
28267;BME280;15525;45.568;5.448;2023-04-30T02:13:04;97901.97;;;15.57;62.70
28267;BME280;15525;45.568;5.448;2023-04-30T02:15:29;97923.66;;;15.52;63.76
28267;BME280;15525;45.568;5.448;2023-04-30T02:17:55;97930.47;;;15.50;63.46
28267;BME280;15525;45.568;5.448;2023-04-30T02:20:20;97931.97;;;15.42;63.80
28267;BME280;15525;45.568;5.448;2023-04-30T02:22:45;97930.97;;;15.52;63.75
28267;BME280;15525;45.568;5.448;2023-04-30T02:25:11;97928.28;;;15.38;64.27
28267;BME280;15525;45.568;5.448;2023-04-30T02:27:36;97924.59;;;15.34;63.60
28267;BME280;15525;45.568;5.448;2023-04-30T02:30:02;97926.38;;;15.25;64.01
28267;BME280;15525;45.568;5.448;2023-04-30T02:32:28;97941.66;;;15.43;63.65
28267;BME280;15525;45.568;5.448;2023-04-30T02:34:54;97936.78;;;15.18;64.40
28267;BME280;15525;45.568;5.448;2023-04-30T02:37:20;97934.69;;;15.15;64.27
28267;BME280;15525;45.568;5.448;2023-04-30T02:39:45;97919.38;;;15.24;64.04
28267;BME280;15525;45.568;5.448;2023-04-30T02:42:11;97913.88;;;15.29;63.40
28267;BME280;15525;45.568;5.448;2023-04-30T02:44:36;97946.97;;;15.48;63.20
28267;BME280;15525;45.568;5.448;2023-04-30T02:47:02;97928.00;;;15.40;63.03
28267;BME280;15525;45.568;5.448;2023-04-30T02:49:28;97931.31;;;15.37;63.11
28267;BME280;15525;45.568;5.448;2023-04-30T02:51:53;97935.69;;;15.33;63.76
28267;BME280;15525;45.568;5.448;2023-04-30T02:54:19;97909.81;;;15.45;62.60
28267;BME280;15525;45.568;5.448;2023-04-30T02:56:45;97932.78;;;15.43;63.13
28267;BME280;15525;45.568;5.448;2023-04-30T02:59:11;97931.97;;;15.29;62.86
28267;BME280;15525;45.568;5.448;2023-04-30T03:01:36;97919.53;;;15.06;63.66
28267;BME280;15525;45.568;5.448;2023-04-30T03:04:02;97939.91;;;14.98;63.90
28267;BME280;15525;45.568;5.448;2023-04-30T03:06:33;97937.69;;;15.00;64.03
28267;BME280;15525;45.568;5.448;2023-04-30T03:08:59;97948.94;;;15.29;63.10
28267;BME280;15525;45.568;5.448;2023-04-30T03:11:25;97960.34;;;15.40;62.67
28267;BME280;15525;45.568;5.448;2023-04-30T03:13:51;97918.41;;;15.07;63.22
28267;BME280;15525;45.568;5.448;2023-04-30T03:16:17;97943.28;;;15.17;63.12
28267;BME280;15525;45.568;5.448;2023-04-30T03:18:52;97941.38;;;15.04;62.98
28267;BME280;15525;45.568;5.448;2023-04-30T03:21:17;97941.88;;;15.06;63.39
28267;BME280;15525;45.568;5.448;2023-04-30T03:23:43;97945.16;;;15.30;62.63
28267;BME280;15525;45.568;5.448;2023-04-30T03:26:08;97937.66;;;15.27;62.50
28267;BME280;15525;45.568;5.448;2023-04-30T03:28:34;97940.47;;;15.36;62.43
28267;BME280;15525;45.568;5.448;2023-04-30T03:31:00;97945.75;;;15.41;62.12
28267;BME280;15525;45.568;5.448;2023-04-30T03:33:29;97930.97;;;15.11;63.37
28267;BME280;15525;45.568;5.448;2023-04-30T03:35:55;97951.84;;;15.33;62.66
28267;BME280;15525;45.568;5.448;2023-04-30T03:38:20;97930.69;;;15.26;62.26
28267;BME280;15525;45.568;5.448;2023-04-30T03:40:47;97965.28;;;15.38;62.82
28267;BME280;15525;45.568;5.448;2023-04-30T03:43:12;97950.47;;;15.08;63.01
28267;BME280;15525;45.568;5.448;2023-04-30T03:45:38;97940.69;;;14.99;63.04
28267;BME280;15525;45.568;5.448;2023-04-30T03:48:03;97950.84;;;14.88;63.66
28267;BME280;15525;45.568;5.448;2023-04-30T03:50:29;97950.25;;;15.18;62.37
28267;BME280;15525;45.568;5.448;2023-04-30T03:52:55;97958.13;;;15.28;62.55
28267;BME280;15525;45.568;5.448;2023-04-30T03:55:21;97937.66;;;15.14;62.76
28267;BME280;15525;45.568;5.448;2023-04-30T03:57:46;97933.91;;;15.15;62.68
28267;BME280;15525;45.568;5.448;2023-04-30T04:00:12;97952.38;;;14.94;63.30
28267;BME280;15525;45.568;5.448;2023-04-30T04:02:38;97950.47;;;15.08;62.81
28267;BME280;15525;45.568;5.448;2023-04-30T04:05:04;97941.69;;;15.03;63.01
28267;BME280;15525;45.568;5.448;2023-04-30T04:07:30;97930.28;;;15.19;62.37
28267;BME280;15525;45.568;5.448;2023-04-30T04:09:55;97956.13;;;15.20;62.92
28267;BME280;15525;45.568;5.448;2023-04-30T04:12:20;97908.44;;;15.07;62.75
28267;BME280;15525;45.568;5.448;2023-04-30T04:14:46;97931.69;;;15.30;61.75
28267;BME280;15525;45.568;5.448;2023-04-30T04:17:12;97956.56;;;15.41;61.92
28267;BME280;15525;45.568;5.448;2023-04-30T04:19:38;97965.34;;;15.46;61.77
28267;BME280;15525;45.568;5.448;2023-04-30T04:22:03;97959.25;;;15.54;61.37
28267;BME280;15525;45.568;5.448;2023-04-30T04:24:29;97958.28;;;15.37;61.68
28267;BME280;15525;45.568;5.448;2023-04-30T04:26:54;97959.47;;;15.17;61.91
28267;BME280;15525;45.568;5.448;2023-04-30T04:29:20;97974.44;;;15.23;62.20
28267;BME280;15525;45.568;5.448;2023-04-30T04:31:45;97965.34;;;15.33;61.72
28267;BME280;15525;45.568;5.448;2023-04-30T04:34:13;97965.34;;;15.46;61.43
28267;BME280;15525;45.568;5.448;2023-04-30T04:36:38;97957.25;;;15.19;61.72
28267;BME280;15525;45.568;5.448;2023-04-30T04:39:04;97954.56;;;15.33;62.07
28267;BME280;15525;45.568;5.448;2023-04-30T04:41:30;97954.44;;;15.51;61.64
28267;BME280;15525;45.568;5.448;2023-04-30T04:44:00;97955.88;;;15.35;62.06
28267;BME280;15525;45.568;5.448;2023-04-30T04:46:33;97968.25;;;15.36;62.26
28267;BME280;15525;45.568;5.448;2023-04-30T04:48:58;97955.88;;;15.35;61.72
28267;BME280;15525;45.568;5.448;2023-04-30T04:51:24;97960.03;;;15.55;61.67
28267;BME280;15525;45.568;5.448;2023-04-30T04:53:49;97963.72;;;15.59;61.34
28267;BME280;15525;45.568;5.448;2023-04-30T04:56:15;97958.25;;;15.50;61.21
28267;BME280;15525;45.568;5.448;2023-04-30T04:58:41;97943.16;;;15.49;61.10
28267;BME280;15525;45.568;5.448;2023-04-30T05:01:07;97957.25;;;15.46;61.21
28267;BME280;15525;45.568;5.448;2023-04-30T05:03:34;97975.22;;;15.64;61.63
28267;BME280;15525;45.568;5.448;2023-04-30T05:06:04;97970.28;;;15.66;61.01
28267;BME280;15525;45.568;5.448;2023-04-30T05:08:29;97960.44;;;15.62;60.75
28267;BME280;15525;45.568;5.448;2023-04-30T05:10:55;97963.16;;;15.35;61.58
28267;BME280;15525;45.568;5.448;2023-04-30T05:13:21;97964.25;;;15.47;61.15
28267;BME280;15525;45.568;5.448;2023-04-30T05:15:51;97974.72;;;15.62;60.75
28267;BME280;15525;45.568;5.448;2023-04-30T05:18:18;97965.75;;;15.40;61.11
28267;BME280;15525;45.568;5.448;2023-04-30T05:20:43;97975.50;;;15.63;61.34
28267;BME280;15525;45.568;5.448;2023-04-30T05:23:08;97966.41;;;15.59;60.83
28267;BME280;15525;45.568;5.448;2023-04-30T05:25:35;97956.38;;;15.51;61.10
28267;BME280;15525;45.568;5.448;2023-04-30T05:28:00;97968.44;;;15.40;61.28
28267;BME280;15525;45.568;5.448;2023-04-30T05:30:27;97955.66;;;15.45;60.76
28267;BME280;15525;45.568;5.448;2023-04-30T05:32:53;97949.69;;;15.21;61.21
28267;BME280;15525;45.568;5.448;2023-04-30T05:35:18;97944.06;;;15.31;61.44
28267;BME280;15525;45.568;5.448;2023-04-30T05:37:44;97969.69;;;15.69;61.17
28267;BME280;15525;45.568;5.448;2023-04-30T05:40:10;97961.41;;;15.66;60.69
28267;BME280;15525;45.568;5.448;2023-04-30T05:42:37;97958.66;;;15.44;61.18
28267;BME280;15525;45.568;5.448;2023-04-30T05:45:05;97965.63;;;15.31;61.61
28267;BME280;15525;45.568;5.448;2023-04-30T05:47:31;97969.22;;;15.00;62.39
28267;BME280;15525;45.568;5.448;2023-04-30T05:49:56;97973.63;;;14.96;62.24
28267;BME280;15525;45.568;5.448;2023-04-30T05:52:22;97952.66;;;15.20;61.76
28267;BME280;15525;45.568;5.448;2023-04-30T05:54:47;97973.94;;;15.21;61.44
28267;BME280;15525;45.568;5.448;2023-04-30T05:57:13;97960.25;;;15.04;61.68
28267;BME280;15525;45.568;5.448;2023-04-30T05:59:38;97958.16;;;15.15;61.86
28267;BME280;15525;45.568;5.448;2023-04-30T06:02:04;97975.06;;;15.34;61.32
28267;BME280;15525;45.568;5.448;2023-04-30T06:04:29;97994.19;;;15.32;61.22
28267;BME280;15525;45.568;5.448;2023-04-30T06:06:55;97969.13;;;15.18;61.65
28267;BME280;15525;45.568;5.448;2023-04-30T06:09:21;97980.41;;;14.93;62.35
28267;BME280;15525;45.568;5.448;2023-04-30T06:11:46;97994.28;;;15.00;62.20
28267;BME280;15525;45.568;5.448;2023-04-30T06:14:15;97986.19;;;15.14;61.93
28267;BME280;15525;45.568;5.448;2023-04-30T06:16:42;97986.09;;;15.32;61.29
28267;BME280;15525;45.568;5.448;2023-04-30T06:19:07;97974.34;;;15.42;61.30
28267;BME280;15525;45.568;5.448;2023-04-30T06:21:33;98000.59;;;15.09;62.00
28267;BME280;15525;45.568;5.448;2023-04-30T06:23:58;97976.91;;;15.06;61.71
28267;BME280;15525;45.568;5.448;2023-04-30T06:26:23;97986.31;;;15.22;61.36
28267;BME280;15525;45.568;5.448;2023-04-30T06:28:49;97979.34;;;15.21;61.61
28267;BME280;15525;45.568;5.448;2023-04-30T06:31:14;97982.22;;;15.25;61.45
28267;BME280;15525;45.568;5.448;2023-04-30T06:33:40;98007.28;;;14.98;62.36
28267;BME280;15525;45.568;5.448;2023-04-30T06:36:05;98007.66;;;14.92;62.75
28267;BME280;15525;45.568;5.448;2023-04-30T06:38:31;97994.59;;;14.85;62.51
28267;BME280;15525;45.568;5.448;2023-04-30T06:40:56;97994.38;;;14.95;62.66
28267;BME280;15525;45.568;5.448;2023-04-30T06:43:21;98001.59;;;15.13;62.19
28267;BME280;15525;45.568;5.448;2023-04-30T06:45:47;97989.38;;;15.02;62.59
28267;BME280;15525;45.568;5.448;2023-04-30T06:48:12;97996.09;;;15.18;62.10
28267;BME280;15525;45.568;5.448;2023-04-30T06:50:38;97999.41;;;15.29;61.76
28267;BME280;15525;45.568;5.448;2023-04-30T06:53:10;98005.97;;;15.09;62.08
28267;BME280;15525;45.568;5.448;2023-04-30T06:55:35;98002.38;;;15.14;62.11
28267;BME280;15525;45.568;5.448;2023-04-30T06:58:01;98009.91;;;15.44;61.53
28267;BME280;15525;45.568;5.448;2023-04-30T07:00:26;98031.09;;;15.37;61.86
28267;BME280;15525;45.568;5.448;2023-04-30T07:02:53;98018.28;;;15.29;61.95
28267;BME280;15525;45.568;5.448;2023-04-30T07:05:20;98015.72;;;15.51;61.79
28267;BME280;15525;45.568;5.448;2023-04-30T07:07:45;98007.13;;;15.35;61.33
28267;BME280;15525;45.568;5.448;2023-04-30T07:10:11;97998.47;;;15.06;62.27
28267;BME280;15525;45.568;5.448;2023-04-30T07:12:36;97995.59;;;15.03;62.38
28267;BME280;15525;45.568;5.448;2023-04-30T07:15:02;98020.47;;;15.27;61.66
28267;BME280;15525;45.568;5.448;2023-04-30T07:17:27;98018.38;;;15.24;61.90
28267;BME280;15525;45.568;5.448;2023-04-30T07:19:56;98007.91;;;15.22;61.70
28267;BME280;15525;45.568;5.448;2023-04-30T07:22:21;98013.09;;;15.32;61.52
28267;BME280;15525;45.568;5.448;2023-04-30T07:24:47;98019.28;;;15.33;61.61
28267;BME280;15525;45.568;5.448;2023-04-30T07:27:12;98015.78;;;15.19;62.19
28267;BME280;15525;45.568;5.448;2023-04-30T07:29:38;98022.81;;;15.47;61.63
28267;BME280;15525;45.568;5.448;2023-04-30T07:32:03;98025.59;;;15.69;60.83
28267;BME280;15525;45.568;5.448;2023-04-30T07:34:29;98029.09;;;15.56;60.79
28267;BME280;15525;45.568;5.448;2023-04-30T07:36:54;98026.66;;;15.68;61.08
28267;BME280;15525;45.568;5.448;2023-04-30T07:39:20;98045.94;;;15.88;60.92
28267;BME280;15525;45.568;5.448;2023-04-30T07:41:45;98029.84;;;15.83;60.54
28267;BME280;15525;45.568;5.448;2023-04-30T07:44:10;98051.94;;;15.72;60.99
28267;BME280;15525;45.568;5.448;2023-04-30T07:46:36;98039.66;;;15.52;61.25
28267;BME280;15525;45.568;5.448;2023-04-30T07:49:02;98045.88;;;15.39;61.10
28267;BME280;15525;45.568;5.448;2023-04-30T07:51:28;98036.69;;;15.40;61.04
28267;BME280;15525;45.568;5.448;2023-04-30T07:53:54;98047.25;;;15.77;60.52
28267;BME280;15525;45.568;5.448;2023-04-30T07:56:19;98042.56;;;15.69;60.65
28267;BME280;15525;45.568;5.448;2023-04-30T07:58:46;98048.97;;;15.73;60.46
28267;BME280;15525;45.568;5.448;2023-04-30T08:01:11;98045.50;;;16.08;59.62
28267;BME280;15525;45.568;5.448;2023-04-30T08:03:36;98051.84;;;16.26;59.27
28267;BME280;15525;45.568;5.448;2023-04-30T08:06:03;98023.25;;;16.25;59.33
28267;BME280;15525;45.568;5.448;2023-04-30T08:08:29;98045.44;;;16.35;59.03
28267;BME280;15525;45.568;5.448;2023-04-30T08:10:54;98037.00;;;16.01;59.70
28267;BME280;15525;45.568;5.448;2023-04-30T08:13:19;98027.69;;;16.07;59.70
28267;BME280;15525;45.568;5.448;2023-04-30T08:15:45;98034.19;;;16.42;59.02
28267;BME280;15525;45.568;5.448;2023-04-30T08:18:10;98031.63;;;16.81;58.20
28267;BME280;15525;45.568;5.448;2023-04-30T08:20:36;98028.59;;;16.38;58.66
28267;BME280;15525;45.568;5.448;2023-04-30T08:23:01;98047.38;;;16.57;58.26
28267;BME280;15525;45.568;5.448;2023-04-30T08:25:27;98047.53;;;16.60;58.56
28267;BME280;15525;45.568;5.448;2023-04-30T08:27:52;98053.81;;;16.69;58.12
28267;BME280;15525;45.568;5.448;2023-04-30T08:30:17;98054.94;;;16.33;58.70
28267;BME280;15525;45.568;5.448;2023-04-30T08:32:43;98057.66;;;16.77;58.08
28267;BME280;15525;45.568;5.448;2023-04-30T08:35:08;98043.91;;;16.43;58.19
28267;BME280;15525;45.568;5.448;2023-04-30T08:37:34;98068.25;;;17.17;57.74
28267;BME280;15525;45.568;5.448;2023-04-30T08:39:59;98071.75;;;16.87;57.81
28267;BME280;15525;45.568;5.448;2023-04-30T08:42:34;98049.50;;;16.68;57.49
28267;BME280;15525;45.568;5.448;2023-04-30T08:45:02;98077.34;;;17.21;57.45
28267;BME280;15525;45.568;5.448;2023-04-30T08:47:28;98056.31;;;17.40;56.66
28267;BME280;15525;45.568;5.448;2023-04-30T08:49:53;98063.38;;;16.97;57.14
28267;BME280;15525;45.568;5.448;2023-04-30T08:52:19;98059.56;;;17.29;57.12
28267;BME280;15525;45.568;5.448;2023-04-30T08:54:46;98061.59;;;17.23;56.72
28267;BME280;15525;45.568;5.448;2023-04-30T08:57:12;98055.56;;;17.26;56.67
28267;BME280;15525;45.568;5.448;2023-04-30T08:59:38;98049.09;;;17.05;56.88
28267;BME280;15525;45.568;5.448;2023-04-30T09:02:04;98081.38;;;17.32;56.47
28267;BME280;15525;45.568;5.448;2023-04-30T09:04:30;98063.44;;;16.84;57.74
28267;BME280;15525;45.568;5.448;2023-04-30T09:06:55;98070.72;;;16.75;57.67
28267;BME280;15525;45.568;5.448;2023-04-30T09:09:27;98066.47;;;16.82;57.47
28267;BME280;15525;45.568;5.448;2023-04-30T09:12:10;98047.16;;;16.75;57.51
28267;BME280;15525;45.568;5.448;2023-04-30T09:14:37;98085.94;;;17.23;56.95
28267;BME280;15525;45.568;5.448;2023-04-30T09:17:04;98080.97;;;16.86;57.46
28267;BME280;15525;45.568;5.448;2023-04-30T09:19:30;98071.78;;;17.26;57.19
28267;BME280;15525;45.568;5.448;2023-04-30T09:21:56;98069.63;;;17.37;56.61
28267;BME280;15525;45.568;5.448;2023-04-30T09:24:23;98081.28;;;17.15;57.09
28267;BME280;15525;45.568;5.448;2023-04-30T09:26:49;98093.38;;;16.65;58.01
28267;BME280;15525;45.568;5.448;2023-04-30T09:29:15;98090.91;;;16.55;58.14
28267;BME280;15525;45.568;5.448;2023-04-30T09:31:45;98076.13;;;16.75;57.79
28267;BME280;15525;45.568;5.448;2023-04-30T09:34:11;98093.25;;;17.23;56.53
28267;BME280;15525;45.568;5.448;2023-04-30T09:36:50;98074.56;;;16.60;58.46
28267;BME280;15525;45.568;5.448;2023-04-30T09:39:17;98074.59;;;17.13;57.16
28267;BME280;15525;45.568;5.448;2023-04-30T09:41:42;98072.16;;;17.33;56.33
28267;BME280;15525;45.568;5.448;2023-04-30T09:46:53;98076.28;;;16.56;57.44
28267;BME280;15525;45.568;5.448;2023-04-30T09:49:20;98079.53;;;16.45;57.69
28267;BME280;15525;45.568;5.448;2023-04-30T09:51:59;98085.59;;;16.94;57.58
28267;BME280;15525;45.568;5.448;2023-04-30T09:54:27;98080.88;;;16.78;57.52
28267;BME280;15525;45.568;5.448;2023-04-30T09:56:53;98084.31;;;16.92;57.49
28267;BME280;15525;45.568;5.448;2023-04-30T09:59:21;98099.09;;;17.16;56.86
28267;BME280;15525;45.568;5.448;2023-04-30T10:01:50;98079.69;;;16.84;56.84
28267;BME280;15525;45.568;5.448;2023-04-30T10:04:17;98083.22;;;16.93;56.96
28267;BME280;15525;45.568;5.448;2023-04-30T10:06:43;98084.00;;;17.15;56.97
28267;BME280;15525;45.568;5.448;2023-04-30T10:09:09;98090.38;;;16.89;56.81
28267;BME280;15525;45.568;5.448;2023-04-30T10:11:36;98088.66;;;16.71;57.44
28267;BME280;15525;45.568;5.448;2023-04-30T10:14:07;98098.94;;;17.13;56.54
28267;BME280;15525;45.568;5.448;2023-04-30T10:16:50;98079.50;;;16.58;57.45
28267;BME280;15525;45.568;5.448;2023-04-30T10:19:23;98124.63;;;16.58;58.51
28267;BME280;15525;45.568;5.448;2023-04-30T10:21:49;98120.09;;;16.67;57.92
28267;BME280;15525;45.568;5.448;2023-04-30T10:24:18;98100.19;;;16.85;57.25
28267;BME280;15525;45.568;5.448;2023-04-30T10:26:45;98116.28;;;17.12;56.80
28267;BME280;15525;45.568;5.448;2023-04-30T10:29:13;98086.63;;;16.76;56.98
28267;BME280;15525;45.568;5.448;2023-04-30T10:31:40;98089.38;;;16.85;57.10
28267;BME280;15525;45.568;5.448;2023-04-30T10:36:53;98111.34;;;17.14;57.18
28267;BME280;15525;45.568;5.448;2023-04-30T10:39:22;98111.22;;;17.41;55.96
28267;BME280;15525;45.568;5.448;2023-04-30T10:41:48;98105.75;;;17.10;56.52
28267;BME280;15525;45.568;5.448;2023-04-30T10:44:14;98116.31;;;17.20;56.65
28267;BME280;15525;45.568;5.448;2023-04-30T10:46:41;98094.53;;;17.25;56.31
28267;BME280;15525;45.568;5.448;2023-04-30T10:49:07;98094.38;;;17.44;55.77
28267;BME280;15525;45.568;5.448;2023-04-30T10:51:49;98107.47;;;17.59;55.86
28267;BME280;15525;45.568;5.448;2023-04-30T10:54:29;98087.25;;;17.65;55.09
28267;BME280;15525;45.568;5.448;2023-04-30T10:57:14;98098.66;;;17.84;54.72
28267;BME280;15525;45.568;5.448;2023-04-30T10:59:43;98102.31;;;17.88;55.38
28267;BME280;15525;45.568;5.448;2023-04-30T11:02:10;98104.78;;;17.67;55.58
28267;BME280;15525;45.568;5.448;2023-04-30T11:07:30;98085.13;;;16.70;57.52
28267;BME280;15525;45.568;5.448;2023-04-30T11:09:56;98104.47;;;17.08;56.80
28267;BME280;15525;45.568;5.448;2023-04-30T11:12:25;98095.38;;;17.34;56.35
28267;BME280;15525;45.568;5.448;2023-04-30T11:17:26;98091.50;;;17.49;56.00
28267;BME280;15525;45.568;5.448;2023-04-30T11:19:53;98104.91;;;17.93;55.19
28267;BME280;15525;45.568;5.448;2023-04-30T11:22:21;98109.09;;;18.24;54.55
28267;BME280;15525;45.568;5.448;2023-04-30T11:27:29;98100.56;;;17.83;55.52
28267;BME280;15525;45.568;5.448;2023-04-30T11:29:56;98098.50;;;17.89;55.43
28267;BME280;15525;45.568;5.448;2023-04-30T11:32:24;98096.19;;;17.65;55.79
28267;BME280;15525;45.568;5.448;2023-04-30T11:34:51;98092.53;;;17.09;57.14
28267;BME280;15525;45.568;5.448;2023-04-30T11:37:39;98101.47;;;17.70;55.71
28267;BME280;15525;45.568;5.448;2023-04-30T11:40:08;98094.50;;;17.17;56.76
28267;BME280;15525;45.568;5.448;2023-04-30T11:42:38;98078.44;;;17.20;56.12
28267;BME280;15525;45.568;5.448;2023-04-30T11:45:06;98084.91;;;17.63;55.90
28267;BME280;15525;45.568;5.448;2023-04-30T11:47:51;98103.34;;;18.17;54.78
28267;BME280;15525;45.568;5.448;2023-04-30T11:50:24;98091.38;;;18.01;54.93
28267;BME280;15525;45.568;5.448;2023-04-30T11:52:54;98098.22;;;18.07;55.47
28267;BME280;15525;45.568;5.448;2023-04-30T11:55:22;98089.38;;;18.66;53.90
28267;BME280;15525;45.568;5.448;2023-04-30T11:57:53;98095.06;;;19.07;53.25
28267;BME280;15525;45.568;5.448;2023-04-30T12:00:30;98088.69;;;19.03;52.87
28267;BME280;15525;45.568;5.448;2023-04-30T12:02:58;98099.28;;;18.79;53.38
28267;BME280;15525;45.568;5.448;2023-04-30T12:05:25;98080.78;;;18.64;53.63
28267;BME280;15525;45.568;5.448;2023-04-30T12:07:56;98100.16;;;18.15;54.33
28267;BME280;15525;45.568;5.448;2023-04-30T12:10:24;98087.72;;;18.31;54.43
28267;BME280;15525;45.568;5.448;2023-04-30T12:12:50;98096.06;;;18.43;53.85
28267;BME280;15525;45.568;5.448;2023-04-30T12:15:24;98096.03;;;18.26;54.49
28267;BME280;15525;45.568;5.448;2023-04-30T12:17:52;98098.47;;;18.36;54.51
28267;BME280;15525;45.568;5.448;2023-04-30T12:20:20;98091.53;;;17.96;54.95
28267;BME280;15525;45.568;5.448;2023-04-30T12:22:49;98089.13;;;17.86;55.32
28267;BME280;15525;45.568;5.448;2023-04-30T12:25:17;98050.88;;;17.96;54.36
28267;BME280;15525;45.568;5.448;2023-04-30T12:27:52;98089.06;;;18.76;53.20
28267;BME280;15525;45.568;5.448;2023-04-30T12:30:20;98096.38;;;18.93;52.83
28267;BME280;15525;45.568;5.448;2023-04-30T12:32:48;98094.28;;;18.98;52.96
28267;BME280;15525;45.568;5.448;2023-04-30T12:35:16;98086.44;;;19.31;52.21
28267;BME280;15525;45.568;5.448;2023-04-30T12:37:48;98090.13;;;19.01;52.81
28267;BME280;15525;45.568;5.448;2023-04-30T12:40:18;98098.47;;;18.87;53.02
28267;BME280;15525;45.568;5.448;2023-04-30T12:42:44;98067.16;;;18.98;52.75
28267;BME280;15525;45.568;5.448;2023-04-30T12:45:11;98085.34;;;19.06;52.75
28267;BME280;15525;45.568;5.448;2023-04-30T12:47:40;98083.56;;;18.08;54.96
28267;BME280;15525;45.568;5.448;2023-04-30T12:50:10;98092.13;;;17.93;55.06
28267;BME280;15525;45.568;5.448;2023-04-30T12:52:37;98092.72;;;18.80;53.58
28267;BME280;15525;45.568;5.448;2023-04-30T12:55:20;98065.00;;;19.46;52.01
28267;BME280;15525;45.568;5.448;2023-04-30T12:58:12;98086.34;;;19.48;51.47
28267;BME280;15525;45.568;5.448;2023-04-30T13:00:50;98072.28;;;19.00;52.60
28267;BME280;15525;45.568;5.448;2023-04-30T13:03:20;98098.34;;;19.55;51.94
28267;BME280;15525;45.568;5.448;2023-04-30T13:05:48;98084.09;;;19.58;51.67
28267;BME280;15525;45.568;5.448;2023-04-30T13:08:14;98086.72;;;19.75;51.92
28267;BME280;15525;45.568;5.448;2023-04-30T13:10:40;98092.22;;;19.96;51.21
28267;BME280;15525;45.568;5.448;2023-04-30T13:13:05;98100.19;;;19.72;51.85
28267;BME280;15525;45.568;5.448;2023-04-30T13:15:31;98091.72;;;20.02;50.86
28267;BME280;15525;45.568;5.448;2023-04-30T13:17:56;98061.34;;;20.29;50.19
28267;BME280;15525;45.568;5.448;2023-04-30T13:20:22;98054.88;;;20.54;49.69
28267;BME280;15525;45.568;5.448;2023-04-30T13:22:49;98054.97;;;20.99;48.63
28267;BME280;15525;45.568;5.448;2023-04-30T13:25:15;98058.06;;;20.98;49.13